Aérodrome :
LOGIN :

S'inscrire | Disclaimer

   EN    FR    IT 

 










Légende :    VFR   VFR Marginal   IFR   IFR Intensif   IFR Très Intensif
Visi : 
Plafond : 
>= 8 km
>= 3000ft
5 à 8 km
1000 à 3000 ft
1500m à 5 km
500 à 1000 ft
800 à 1500m
200 à 500 ft
< 800m
< 200 ft
Symboles :   Orages  Brouillard  Fortes neiges  Fortes précipitations  Vent > 20 kt
SIGMETs :   Divers  Orages  Givrage  Turbulence  Onde Orograph.  Cendres Volcan.







- Altitude de l'aérodrome : 359 ft
- Code IATA : BVA
- Voir les cartes d'approche


LFOB - Beauvais

DERNIER METAR :
  • 211130Z AUTO 25005KT 200V310 9999 BKN034 22/14 Q1014 TEMPO 4000 SHRA BKN030TCU

METARs EXPIRÉS :
  • 211100Z AUTO VRB03KT 9999 SCT027 BKN036 22/15 Q1014 NOSIG
  • 211030Z AUTO VRB02KT 9999 FEW020 BKN034 BKN052 20/15 Q1014 NOSIG
  • 211000Z AUTO VRB01KT 9999 SCT019 BKN031 BKN050 20/15 Q1014 NOSIG
  • 210930Z AUTO VRB03KT 9999 FEW016 BKN025 BKN030 20/15 Q1014 NOSIG
  • 210900Z AUTO 24003KT 190V290 9999 SCT012 BKN024 BKN100 19/16 Q1014 NOSIG

TAF TAF LFOB
Valide du 21 à 12h jusqu'au 22 à 12h UTC


211100Z 2112/2212 VRB03KT 9999 SCT025
PROB30
TEMPO 2113/2117 4000 SHRA BKN030TCU
ATIS : +33 3 44 11 49 28
Pas de NOTAMs connus pour ce terrain.



MET'MAP, la Météo Aéronautique d'un coup d'oeil ! - Copyright ORBIFLY Décembre 2007 - Disclaimer

ORBIFLY MET'MAP TEAM :

Programmation & Développement : Alexandra Zaïnal
Conception & Développement : Baudouin d'Aumeries
Co-Programmation & Développement : Marc-Olivier Méhu
Soutien technique & logistique : Manuel Goepfert

Contact : metmap@orbifly.com




SOURCES & CREDITS :

   NOAA